createdAt,value
2023-04-18T00:49:14.183Z,72.72
2023-04-18T01:19:41.641Z,73.15
2023-04-18T01:26:37.388Z,73.33
2023-04-18T02:55:12.501Z,74.19
2023-04-18T03:02:36.884Z,74.07
2023-04-18T03:06:37.058Z,74.12
2023-04-18T03:14:02.257Z,74.00
2023-04-18T03:18:26.940Z,74.12
2023-04-18T04:07:41.300Z,74.61
2023-04-18T04:11:29.004Z,74.67
2023-04-18T04:15:30.131Z,74.69
2023-04-18T04:22:26.839Z,74.78
2023-04-18T04:26:32.249Z,74.80
2023-04-18T04:34:41.671Z,74.75
2023-04-18T04:38:56.760Z,74.66
2023-04-18T04:42:51.013Z,74.70
2023-04-18T04:51:30.598Z,74.76
2023-04-18T05:15:07.318Z,75.01
2023-04-18T05:18:23.613Z,75.06
2023-04-18T05:21:39.492Z,75.05
2023-04-18T05:24:38.687Z,74.96
2023-04-18T05:27:17.702Z,74.96
2023-04-18T05:30:07.022Z,74.91
2023-04-18T05:33:05.241Z,74.79
2023-04-18T05:36:03.202Z,74.99
2023-04-18T05:39:06.809Z,74.96
2023-04-18T05:42:27.621Z,75.03
2023-04-18T05:45:42.993Z,74.91
2023-04-18T05:48:29.796Z,74.84
2023-04-18T05:51:02.677Z,74.95
2023-04-18T05:53:54.813Z,74.98
2023-04-18T05:56:46.798Z,74.94
2023-04-18T05:59:27.977Z,74.94
2023-04-18T06:02:18.336Z,75.02
2023-04-18T06:04:48.710Z,75.03
2023-04-18T06:07:40.562Z,74.80
2023-04-18T06:10:20.603Z,74.89
2023-04-18T06:12:51.749Z,74.96
2023-04-18T06:15:42.795Z,74.83
2023-04-18T06:18:31.702Z,74.65
2023-04-18T06:21:02.983Z,74.84
2023-04-18T06:23:32.378Z,74.70
2023-04-18T06:26:02.440Z,74.60
2023-04-18T06:28:33.104Z,74.41
2023-04-18T06:31:01.863Z,74.73
2023-04-18T06:34:10.124Z,74.53
2023-04-18T06:37:04.733Z,74.60
2023-04-18T06:39:37.716Z,74.59
2023-04-18T06:42:26.639Z,74.68
2023-04-18T06:44:56.476Z,74.50
2023-04-18T06:47:24.878Z,74.32
2023-04-18T06:49:54.795Z,74.64
2023-04-18T06:52:25.415Z,73.95
2023-04-18T06:54:54.336Z,74.13
2023-04-18T06:57:22.731Z,74.23
2023-04-18T06:59:51.510Z,73.97
2023-04-18T07:02:21.678Z,74.06
2023-04-18T07:05:11.655Z,73.75
2023-04-18T07:07:39.683Z,74.11
2023-04-18T07:10:13.741Z,73.95
2023-04-18T07:12:45.335Z,73.87
2023-04-18T07:15:15.619Z,73.74
2023-04-18T07:17:45.448Z,73.80
2023-04-18T07:20:14.503Z,73.19
2023-04-18T07:22:44.140Z,73.18
2023-04-18T07:25:14.050Z,73.27
2023-04-18T07:27:41.988Z,73.46
2023-04-18T07:30:12.197Z,73.72
2023-04-18T07:32:40.513Z,73.16
2023-04-18T07:35:08.585Z,73.35
2023-04-18T07:37:37.751Z,72.93
2023-04-18T07:40:05.720Z,72.63
2023-04-18T07:42:33.369Z,72.70
2023-04-18T07:45:01.103Z,72.11
2023-04-18T07:47:30.385Z,72.43
2023-04-18T07:49:58.994Z,72.44
2023-04-18T07:52:26.586Z,72.08
2023-04-18T07:54:54.142Z,72.10
2023-04-18T07:57:22.036Z,72.40
2023-04-18T07:59:53.454Z,72.83
2023-04-18T08:02:21.257Z,72.44
2023-04-18T08:04:49.930Z,72.06
2023-04-18T08:07:17.879Z,72.47
2023-04-18T08:09:47.209Z,72.25
2023-04-18T08:12:14.917Z,72.43
2023-04-18T08:14:42.552Z,71.89
2023-04-18T08:17:10.323Z,71.96
2023-04-18T08:19:37.917Z,71.71
2023-04-18T08:22:10.085Z,71.50
2023-04-18T08:24:38.260Z,71.70
2023-04-18T08:27:05.911Z,71.44
2023-04-18T08:29:33.590Z,70.98
2023-04-18T08:32:01.419Z,70.71
2023-04-18T08:34:29.557Z,70.61
2023-04-18T08:36:58.532Z,71.09
2023-04-18T08:39:26.305Z,71.17
2023-04-18T08:41:58.661Z,71.03
2023-04-18T08:44:30.323Z,70.76
2023-04-18T08:46:59.632Z,71.13
2023-04-18T08:49:30.474Z,70.82
2023-04-18T08:52:02.178Z,70.14
2023-04-18T08:54:31.443Z,70.18
2023-04-18T08:57:09.458Z,71.05
2023-04-18T08:59:46.248Z,71.04
2023-04-18T09:02:37.360Z,70.78
2023-04-18T09:05:21.359Z,70.19
2023-04-18T09:07:51.965Z,69.90
2023-04-18T09:10:28.424Z,70.34
2023-04-18T09:12:57.937Z,70.20
2023-04-18T09:15:28.814Z,70.14
2023-04-18T09:17:58.960Z,69.44
2023-04-18T09:20:30.383Z,69.91
2023-04-18T09:23:00.364Z,69.27
2023-04-18T09:25:39.203Z,69.30
2023-04-18T09:28:42.159Z,68.79
2023-04-18T09:31:13.816Z,68.79
2023-04-18T09:33:53.791Z,68.50
2023-04-18T09:36:27.663Z,68.37
2023-04-18T09:38:57.203Z,68.58
2023-04-18T09:41:27.752Z,68.55
2023-04-18T09:44:15.574Z,68.00
2023-04-18T09:46:47.388Z,67.81
2023-04-18T09:49:24.330Z,68.21
2023-04-18T09:52:12.942Z,68.72
2023-04-18T09:54:47.707Z,68.57
2023-04-18T09:57:37.677Z,67.96
2023-04-18T10:00:26.405Z,67.73
2023-04-18T10:03:09.606Z,67.57
2023-04-18T10:05:39.466Z,67.78
2023-04-18T10:08:09.737Z,67.70
2023-04-18T10:10:41.961Z,67.67
2023-04-18T10:13:11.634Z,67.53
2023-04-18T10:15:41.190Z,66.76
2023-04-18T10:18:14.110Z,65.47
2023-04-18T10:21:23.732Z,65.39
2023-04-18T10:24:37.537Z,65.88
2023-04-18T10:27:37.233Z,66.39
2023-04-18T10:30:38.954Z,65.02
2023-04-18T10:37:36.245Z,65.00
2023-04-18T10:40:32.570Z,64.26
2023-04-18T10:43:13.682Z,65.06
2023-04-18T10:45:45.635Z,64.95
2023-04-18T10:58:46.984Z,63.18
2023-04-18T11:12:16.762Z,63.81
2023-04-18T11:15:10.416Z,62.66
2023-04-18T11:18:02.236Z,62.61
2023-04-18T11:20:40.675Z,63.16
2023-04-18T11:23:16.201Z,62.25
2023-04-18T11:25:46.954Z,62.14
2023-04-18T11:28:37.348Z,61.62
2023-04-18T11:31:15.642Z,62.10
2023-04-18T11:33:50.407Z,61.98
2023-04-18T11:36:39.554Z,61.49
2023-04-18T11:39:09.968Z,61.77
2023-04-18T11:41:40.404Z,62.38
2023-04-18T11:44:10.018Z,62.51
2023-04-18T11:46:40.323Z,62.33
2023-04-18T11:49:26.442Z,61.22
2023-04-18T11:51:55.604Z,61.17
2023-04-18T11:54:49.083Z,60.67
2023-04-18T12:00:23.165Z,60.74
2023-04-18T12:02:52.240Z,61.26
2023-04-18T12:05:27.747Z,61.50
2023-04-18T12:07:56.228Z,61.09
2023-04-18T12:10:44.147Z,60.21
2023-04-18T12:13:11.914Z,60.38
2023-04-18T12:15:46.789Z,60.42
2023-04-18T12:18:17.683Z,60.75
2023-04-18T12:20:47.116Z,61.25
2023-04-18T12:23:33.375Z,59.90
2023-04-18T12:26:23.346Z,59.63
2023-04-18T12:28:51.569Z,59.99
2023-04-18T12:31:22.192Z,60.30
2023-04-18T12:33:53.054Z,60.35
2023-04-18T12:36:22.829Z,60.54
2023-04-18T12:38:53.588Z,60.52
2023-04-18T12:41:21.780Z,60.33
2023-04-18T12:43:49.577Z,60.18
2023-04-18T12:46:18.879Z,59.08
2023-04-18T12:48:47.123Z,58.71
2023-04-18T12:51:20.616Z,58.48
2023-04-18T12:53:50.010Z,58.71
2023-04-18T12:56:18.296Z,58.66
2023-04-18T12:58:48.426Z,58.44
2023-04-18T13:01:16.887Z,58.24
2023-04-18T13:03:53.686Z,57.74
2023-04-18T13:06:27.973Z,58.20
2023-04-18T13:08:58.909Z,59.01
2023-04-18T13:11:30.206Z,57.75
2023-04-18T13:13:59.019Z,56.89
2023-04-18T13:16:27.821Z,57.87
2023-04-18T13:18:56.391Z,57.44
2023-04-18T13:21:26.745Z,57.55
2023-04-18T13:24:00.630Z,57.85
2023-04-18T13:26:34.238Z,57.51
2023-04-18T13:29:02.538Z,57.77
2023-04-18T13:31:31.883Z,57.76
2023-04-18T13:34:02.078Z,57.62
2023-04-18T13:36:31.063Z,57.69
2023-04-18T13:39:00.702Z,57.76
2023-04-18T13:41:29.432Z,57.58
2023-04-18T13:43:59.584Z,57.71
2023-04-18T13:46:30.033Z,57.39
2023-04-18T13:49:00.184Z,57.09
2023-04-18T13:52:10.963Z,56.64
2023-04-18T13:54:40.961Z,56.76
2023-04-18T13:57:14.293Z,56.96
2023-04-18T13:59:43.406Z,57.58
2023-04-18T14:02:16.837Z,57.83
2023-04-18T14:04:45.621Z,57.45
2023-04-18T14:07:13.746Z,56.41
2023-04-18T14:09:42.920Z,56.42
2023-04-18T14:12:13.505Z,56.38
2023-04-18T14:14:42.600Z,56.16
2023-04-18T14:17:10.437Z,56.05
2023-04-18T14:19:43.431Z,56.20
2023-04-18T14:22:12.566Z,56.23
2023-04-18T14:24:41.180Z,56.13
2023-04-18T14:27:12.801Z,56.26
2023-04-18T14:29:44.134Z,56.10
2023-04-18T14:32:12.949Z,56.14
2023-04-18T14:34:40.896Z,56.13
2023-04-18T14:37:08.828Z,56.16
2023-04-18T14:39:38.778Z,56.21
2023-04-18T14:42:07.468Z,56.08
2023-04-18T14:44:35.232Z,56.10
2023-04-18T14:47:04.362Z,56.39
2023-04-18T14:49:33.932Z,56.29
2023-04-18T14:52:01.523Z,56.67
2023-04-18T14:54:32.489Z,56.61
2023-04-18T14:57:02.348Z,56.39
2023-04-18T14:59:32.272Z,56.36
2023-04-18T15:05:27.626Z,55.59
2023-04-18T15:07:56.405Z,55.27
2023-04-18T15:10:27.824Z,55.32
2023-04-18T15:12:55.789Z,55.60
2023-04-18T15:15:25.740Z,55.73
2023-04-18T15:17:56.762Z,55.53
2023-04-18T15:20:25.969Z,55.45
2023-04-18T15:22:54.452Z,55.25
2023-04-18T15:25:25.906Z,55.07
2023-04-18T15:27:57.323Z,55.15
2023-04-18T15:30:26.870Z,55.21
2023-04-18T15:32:59.803Z,55.48
2023-04-18T15:35:30.443Z,55.33
2023-04-18T15:38:02.259Z,55.16
2023-04-18T15:40:43.277Z,55.10
2023-04-18T15:43:29.053Z,55.17
2023-04-18T15:46:00.458Z,55.17
2023-04-18T15:48:33.932Z,55.41
2023-04-18T15:51:18.287Z,55.57
2023-04-18T15:53:47.758Z,55.29
2023-04-18T15:56:19.518Z,55.24
2023-04-18T15:58:48.634Z,55.24
2023-04-18T16:01:20.392Z,55.21
2023-04-18T16:03:51.043Z,55.28
2023-04-18T16:06:24.612Z,55.27
2023-04-18T16:08:53.199Z,55.44
2023-04-18T16:11:35.062Z,55.39
2023-04-18T16:14:07.193Z,55.41
2023-04-18T16:16:39.819Z,55.46
2023-04-18T16:19:09.460Z,55.49
2023-04-18T16:21:37.736Z,55.35
2023-04-18T16:24:06.183Z,55.41
2023-04-18T16:26:34.582Z,55.44
2023-04-18T16:29:02.680Z,55.66
2023-04-18T16:31:30.760Z,55.74
2023-04-18T16:33:59.134Z,55.68
2023-04-18T16:36:33.218Z,55.48
2023-04-18T16:39:05.361Z,55.37
2023-04-18T16:41:36.938Z,55.55
2023-04-18T16:44:05.697Z,55.60
2023-04-18T16:46:35.248Z,55.54
2023-04-18T16:49:04.978Z,55.60
2023-04-18T16:51:36.445Z,55.82
2023-04-18T16:54:07.915Z,55.87
2023-04-18T16:56:36.812Z,55.74
2023-04-18T16:59:10.911Z,55.92
2023-04-18T17:01:40.365Z,55.98
2023-04-18T17:04:09.385Z,55.96
2023-04-18T17:06:44.651Z,55.99
2023-04-18T17:09:15.414Z,56.03
2023-04-18T17:11:46.046Z,56.17
2023-04-18T17:14:16.272Z,56.21
2023-04-18T17:16:46.153Z,56.30
2023-04-18T17:19:16.378Z,56.39
2023-04-18T17:21:46.332Z,56.41
2023-04-18T17:24:15.656Z,56.35
2023-04-18T17:26:45.889Z,56.45
2023-04-18T17:29:14.876Z,56.46
2023-04-18T17:31:45.073Z,56.51
2023-04-18T17:34:18.464Z,56.63
2023-04-18T17:36:51.312Z,56.75
2023-04-18T17:39:23.560Z,56.77
2023-04-18T17:41:59.150Z,56.77
2023-04-18T17:44:30.823Z,56.95
2023-04-18T17:47:09.546Z,56.95
2023-04-18T17:49:40.285Z,57.05
2023-04-18T17:52:09.748Z,57.17
2023-04-18T17:54:40.376Z,57.06
2023-04-18T17:57:10.529Z,57.33
2023-04-18T17:59:42.454Z,57.40
2023-04-18T18:02:18.324Z,57.37
2023-04-18T18:04:50.698Z,57.44
2023-04-18T18:07:24.695Z,57.62
2023-04-18T18:09:56.999Z,57.70
2023-04-18T18:12:28.172Z,57.73
2023-04-18T18:14:59.483Z,57.83
2023-04-18T18:17:30.841Z,57.86
2023-04-18T18:20:01.869Z,57.92
2023-04-18T18:22:31.700Z,57.95
2023-04-18T18:25:02.749Z,58.15
2023-04-18T18:27:34.091Z,58.19
2023-04-18T18:30:08.700Z,58.33
2023-04-18T18:32:46.415Z,58.38
2023-04-18T18:35:18.154Z,58.31
2023-04-18T18:37:56.410Z,58.49
2023-04-18T18:40:29.628Z,58.60
2023-04-18T18:43:03.115Z,58.56
2023-04-18T18:45:35.557Z,58.64
2023-04-18T18:48:07.480Z,58.67
2023-04-18T18:50:40.636Z,58.77
2023-04-18T18:53:14.794Z,58.78
2023-04-18T18:56:11.644Z,58.84
2023-04-18T18:58:59.287Z,58.82
2023-04-18T19:01:41.743Z,58.85
2023-04-18T19:04:39.224Z,58.90
2023-04-18T19:07:13.862Z,58.93
2023-04-18T19:09:48.851Z,58.97
2023-04-18T19:12:19.787Z,58.89
2023-04-18T19:14:51.094Z,59.06
2023-04-18T19:17:26.128Z,59.10
2023-04-18T19:20:26.532Z,59.05
2023-04-18T19:23:04.090Z,59.19
2023-04-18T19:26:15.005Z,59.28
2023-04-18T19:32:32.477Z,59.36
2023-04-18T19:35:43.720Z,59.53
2023-04-18T19:38:40.429Z,59.46
2023-04-18T19:41:33.128Z,59.62
2023-04-18T19:44:23.210Z,59.69
2023-04-18T19:47:26.233Z,59.78
2023-04-18T19:50:10.467Z,59.81
2023-04-18T19:53:03.498Z,59.87
2023-04-18T19:55:43.756Z,60.01
2023-04-18T20:01:50.552Z,59.86
2023-04-18T20:04:33.897Z,59.96
2023-04-18T20:07:20.333Z,60.10
2023-04-18T20:10:03.824Z,59.99
2023-04-18T20:12:51.978Z,60.17
2023-04-18T20:15:42.314Z,60.22
2023-04-18T20:18:26.168Z,60.38
2023-04-18T20:21:31.970Z,60.26
2023-04-18T20:24:05.337Z,60.32
2023-04-18T20:27:00.751Z,60.51
2023-04-18T20:29:48.189Z,60.65
2023-04-18T20:33:30.046Z,60.65
2023-04-18T20:36:52.162Z,60.51
2023-04-18T20:39:44.362Z,60.59
2023-04-18T20:42:35.395Z,60.89
2023-04-18T20:45:31.267Z,60.71
2023-04-18T20:48:13.799Z,61.01
2023-04-18T20:50:50.058Z,60.94
2023-04-18T20:53:22.065Z,60.98
2023-04-18T20:55:50.300Z,60.92
2023-04-18T20:58:23.996Z,61.13
2023-04-18T21:00:54.675Z,61.11
2023-04-18T21:03:28.426Z,60.89
2023-04-18T21:06:00.628Z,60.83
2023-04-18T21:13:03.456Z,60.60
2023-04-18T21:15:34.553Z,60.50
2023-04-18T21:18:04.515Z,60.48
2023-04-18T21:20:36.073Z,60.40
2023-04-18T21:23:05.276Z,60.38
2023-04-18T21:25:36.027Z,60.44
2023-04-18T21:28:04.524Z,60.59
2023-04-18T21:30:35.338Z,60.68
2023-04-18T21:33:04.024Z,60.82
2023-04-18T21:35:34.876Z,60.49
2023-04-18T21:38:03.421Z,60.48
2023-04-18T21:40:34.144Z,60.51
2023-04-18T21:43:29.256Z,60.38
2023-04-18T21:46:49.568Z,60.75
2023-04-18T21:49:47.817Z,60.53
2023-04-18T21:52:38.623Z,60.87
2023-04-18T21:56:08.857Z,60.64
2023-04-18T21:59:22.175Z,60.57
2023-04-18T22:01:52.735Z,60.73
2023-04-18T22:04:30.827Z,60.78
2023-04-18T22:07:58.475Z,60.84
2023-04-18T22:11:28.225Z,60.83
2023-04-18T22:14:31.224Z,61.02
2023-04-18T22:17:31.518Z,60.99
2023-04-18T22:20:25.215Z,60.94
2023-04-18T22:22:54.509Z,61.08
2023-04-18T22:29:55.252Z,61.08
2023-04-18T22:32:32.988Z,61.24
2023-04-18T22:35:28.356Z,61.22
2023-04-18T22:42:22.954Z,61.24
2023-04-18T22:44:51.688Z,61.38
2023-04-18T22:47:29.412Z,61.40
2023-04-18T22:50:01.688Z,61.48
2023-04-18T22:52:37.889Z,61.31
2023-04-18T22:55:10.807Z,61.45
2023-04-18T22:57:57.882Z,61.47
2023-04-18T23:00:47.553Z,61.57
2023-04-18T23:03:15.838Z,61.48
2023-04-18T23:05:45.120Z,61.51
2023-04-18T23:08:15.486Z,61.61
2023-04-18T23:10:44.814Z,61.49
2023-04-18T23:13:17.485Z,61.64
2023-04-18T23:16:10.461Z,61.62
2023-04-18T23:18:38.690Z,61.67
2023-04-18T23:21:09.048Z,61.77
2023-04-18T23:23:37.706Z,61.86
2023-04-18T23:26:13.783Z,61.84
2023-04-18T23:28:44.788Z,61.97
2023-04-18T23:31:13.731Z,61.90
2023-04-18T23:33:44.147Z,62.23
2023-04-18T23:36:15.609Z,61.99
2023-04-18T23:38:44.710Z,61.96
2023-04-18T23:41:15.151Z,62.03
2023-04-18T23:43:43.981Z,62.14
2023-04-18T23:46:13.824Z,62.03
2023-04-18T23:48:43.974Z,62.18
2023-04-18T23:51:13.024Z,61.90
2023-04-18T23:53:41.303Z,62.08
2023-04-18T23:56:11.014Z,61.94
2023-04-18T23:58:40.249Z,62.17
